Time;durP1;ratioP1;P1;durP2;ratioP2;P2;SDS_P1;SDS_P2;PMS_P1;PMS_P2;Temp;Humidity;BMP_temperature;BMP_pressure;BME280_temperature;BME280_humidity;BME280_pressure;Samples;Min_cycle;Max_cycle;Signal;HPM_P1;HPM_P2
2022/06/05 00:00:37;;;;;;;;;;;14.00;99.90;;;;;;5076285;28;19923;-63
2022/06/05 00:03:02;;;;;;;;;;;14.00;99.90;;;;;;5060169;28;19979;-62
2022/06/05 00:05:33;;;;;;;;;;;13.80;99.90;;;;;;5077146;28;19963;-62
2022/06/05 00:08:06;;;;;;;;;;;13.70;99.90;;;;;;5074521;28;20042;-62
2022/06/05 00:10:37;;;;;;;;;;;13.70;99.90;;;;;;5078155;28;19927;-62
2022/06/05 00:13:13;;;;;;;;;;;13.50;99.90;;;;;;5080591;28;19919;-62
2022/06/05 00:15:38;;;;;;;;;;;13.50;99.90;;;;;;5078258;28;20344;-62
2022/06/05 00:18:04;;;;;;;;;;;13.60;99.90;;;;;;5082865;28;19916;-62
2022/06/05 00:20:31;;;;;;;;;;;13.50;99.90;;;;;;5082927;28;19950;-62
2022/06/05 00:22:57;;;;;;;;;;;13.50;99.90;;;;;;5086221;28;19912;-62
2022/06/05 00:25:25;;;;;;;;;;;13.50;99.90;;;;;;5086916;28;19929;-62
2022/06/05 00:27:56;;;;;;;;;;;13.40;99.90;;;;;;5086915;28;19900;-62
2022/06/05 00:30:35;;;;;;;;;;;13.30;99.90;;;;;;5088708;28;19939;-62
2022/06/05 00:33:14;;;;;;;;;;;13.20;99.90;;;;;;5086492;28;19912;-63
2022/06/05 00:35:52;;;;;;;;;;;13.30;99.90;;;;;;5090351;28;19900;-62
2022/06/05 00:38:23;;;;;;;;;;;13.20;99.90;;;;;;5086031;28;19974;-63
2022/06/05 00:41:21;;;;;;;;;;;13.20;99.90;;;;;;5085652;28;19917;-61
2022/06/05 00:43:47;;;;;;;;;;;13.10;99.90;;;;;;5085123;28;19924;-63
2022/06/05 00:46:13;;;;;;;;;;;13.10;99.90;;;;;;5086334;28;19970;-62
2022/06/05 00:48:39;;;;;;;;;;;13.00;99.90;;;;;;5086814;28;19956;-63
2022/06/05 00:51:05;;;;;;;;;;;12.90;99.90;;;;;;5067042;28;19927;-63
2022/06/05 00:53:31;;;;;;;;;;;12.80;99.90;;;;;;5071766;28;19966;-62
2022/06/05 00:55:56;;;;;;;;;;;12.80;99.90;;;;;;5092287;28;19996;-62
2022/06/05 00:58:22;;;;;;;;;;;12.70;99.90;;;;;;5091322;28;19901;-62
2022/06/05 01:00:52;;;;;;;;;;;12.60;99.90;;;;;;5088858;28;19920;-62
2022/06/05 01:03:19;;;;;;;;;;;12.60;99.90;;;;;;5086286;28;19923;-63
2022/06/05 01:05:44;;;;;;;;;;;12.60;99.90;;;;;;5088786;28;19935;-62
2022/06/05 01:08:11;;;;;;;;;;;12.50;99.90;;;;;;5091196;28;19904;-63
2022/06/05 01:10:55;;;;;;;;;;;12.50;99.90;;;;;;5071815;28;19920;-63
2022/06/05 01:13:21;;;;;;;;;;;12.40;99.90;;;;;;5086911;28;19900;-63
2022/06/05 01:15:57;;;;;;;;;;;12.40;99.90;;;;;;5086641;28;19920;-62
2022/06/05 01:18:23;;;;;;;;;;;12.40;99.90;;;;;;5073319;28;19980;-62
2022/06/05 01:20:54;;;;;;;;;;;12.40;99.90;;;;;;5067523;28;19905;-62
2022/06/05 01:23:20;;;;;;;;;;;12.40;99.90;;;;;;5089506;28;19916;-66
2022/06/05 01:26:18;;;;;;;;;;;12.30;99.90;;;;;;5087835;28;19963;-63
2022/06/05 01:28:56;;;;;;;;;;;12.40;99.90;;;;;;5037638;28;19979;-62
2022/06/05 01:31:38;;;;;;;;;;;12.30;99.90;;;;;;5092708;28;19913;-62
2022/06/05 01:34:07;;;;;;;;;;;12.20;99.90;;;;;;5092388;28;19908;-62
2022/06/05 01:36:40;;;;;;;;;;;12.20;99.90;;;;;;5089094;28;19952;-62
2022/06/05 01:39:19;;;;;;;;;;;12.10;99.90;;;;;;5089751;28;19912;-62
2022/06/05 01:41:49;;;;;;;;;;;12.10;99.90;;;;;;5086911;28;19956;-62
2022/06/05 01:44:28;;;;;;;;;;;12.10;99.90;;;;;;5087785;28;19943;-62
2022/06/05 01:46:57;;;;;;;;;;;12.10;99.90;;;;;;5082083;28;19924;-63
2022/06/05 01:49:29;;;;;;;;;;;12.10;99.90;;;;;;5086789;28;19901;-62
2022/06/05 01:52:04;;;;;;;;;;;12.00;99.90;;;;;;5083411;28;19908;-63
2022/06/05 01:54:32;;;;;;;;;;;12.00;99.90;;;;;;5085632;28;19913;-62
2022/06/05 01:56:59;;;;;;;;;;;11.90;99.90;;;;;;5085640;28;20003;-61
2022/06/05 01:59:40;;;;;;;;;;;11.90;99.90;;;;;;5065147;28;19923;-62
2022/06/05 02:02:08;;;;;;;;;;;11.90;99.90;;;;;;5064870;28;19913;-62
2022/06/05 02:04:38;;;;;;;;;;;11.90;99.90;;;;;;5086934;28;19912;-63
2022/06/05 02:07:08;;;;;;;;;;;11.80;99.90;;;;;;5082412;28;19947;-62
2022/06/05 02:09:36;;;;;;;;;;;11.80;99.90;;;;;;5067422;28;19912;-62
2022/06/05 02:12:03;;;;;;;;;;;11.80;99.90;;;;;;5088408;28;19913;-63
2022/06/05 02:14:29;;;;;;;;;;;11.70;99.90;;;;;;5063902;28;19920;-63
2022/06/05 02:16:54;;;;;;;;;;;11.70;99.90;;;;;;5082490;28;19979;-61
2022/06/05 02:19:21;;;;;;;;;;;11.80;99.90;;;;;;5084159;28;19920;-62
2022/06/05 02:21:47;;;;;;;;;;;11.80;99.90;;;;;;5084301;28;19935;-62
2022/06/05 02:24:14;;;;;;;;;;;11.90;99.90;;;;;;5063662;28;19913;-62
2022/06/05 02:26:39;;;;;;;;;;;11.80;99.90;;;;;;5085814;28;20027;-62
2022/06/05 02:29:10;;;;;;;;;;;11.80;99.90;;;;;;5086967;28;19946;-62
2022/06/05 02:31:56;;;;;;;;;;;11.90;99.90;;;;;;5083538;28;19904;-61
2022/06/05 02:34:26;;;;;;;;;;;11.80;99.90;;;;;;5071190;28;19924;-62
2022/06/05 02:36:57;;;;;;;;;;;11.90;99.90;;;;;;5069743;28;19913;-61
2022/06/05 02:39:30;;;;;;;;;;;12.00;99.90;;;;;;5089462;28;19929;-62
2022/06/05 02:42:04;;;;;;;;;;;12.00;99.90;;;;;;5086306;28;19974;-62
2022/06/05 02:44:39;;;;;;;;;;;12.00;99.90;;;;;;5081170;28;19900;-62
2022/06/05 02:47:08;;;;;;;;;;;12.10;99.90;;;;;;5085893;28;19920;-62
2022/06/05 02:49:49;;;;;;;;;;;12.20;99.90;;;;;;5085822;28;19919;-62
2022/06/05 02:52:15;;;;;;;;;;;12.10;99.90;;;;;;5084840;28;19922;-63
2022/06/05 02:54:45;;;;;;;;;;;12.10;99.90;;;;;;5082531;28;19901;-62
2022/06/05 02:57:13;;;;;;;;;;;12.00;99.90;;;;;;5086524;28;19917;-62
2022/06/05 02:59:39;;;;;;;;;;;12.10;99.90;;;;;;5067549;28;19920;-61
2022/06/05 03:04:48;;;;;;;;;;;12.10;99.90;;;;;;5085320;28;19927;-62
2022/06/05 03:07:14;;;;;;;;;;;12.00;99.90;;;;;;5087513;28;19917;-62
2022/06/05 03:09:40;;;;;;;;;;;11.90;99.90;;;;;;5087799;28;19934;-62
2022/06/05 03:12:05;;;;;;;;;;;12.00;99.90;;;;;;5087163;28;19912;-62
2022/06/05 03:14:31;;;;;;;;;;;12.00;99.90;;;;;;5084260;28;19912;-61
2022/06/05 03:16:56;;;;;;;;;;;12.00;99.90;;;;;;5089247;28;19900;-61
2022/06/05 03:19:22;;;;;;;;;;;12.00;99.90;;;;;;5078241;28;19913;-63
2022/06/05 03:21:47;;;;;;;;;;;12.00;99.90;;;;;;5072401;28;19923;-63
2022/06/05 03:24:14;;;;;;;;;;;12.00;99.90;;;;;;5089575;28;19974;-62
2022/06/05 03:26:39;;;;;;;;;;;12.00;99.90;;;;;;5068107;28;19916;-61
2022/06/05 03:29:07;;;;;;;;;;;12.00;99.90;;;;;;5080563;28;19917;-62
2022/06/05 03:31:37;;;;;;;;;;;12.10;99.90;;;;;;5088576;28;19979;-63
2022/06/05 03:34:03;;;;;;;;;;;12.00;99.90;;;;;;5063991;28;19916;-62
2022/06/05 03:36:28;;;;;;;;;;;12.10;99.90;;;;;;5068000;28;19917;-62
2022/06/05 03:38:54;;;;;;;;;;;12.10;99.90;;;;;;5089214;28;19948;-62
2022/06/05 03:41:19;;;;;;;;;;;12.00;99.90;;;;;;5087728;28;19919;-62
2022/06/05 03:43:46;;;;;;;;;;;12.10;99.90;;;;;;5088071;28;19935;-62
2022/06/05 03:46:12;;;;;;;;;;;12.00;99.90;;;;;;5091111;28;19992;-62
2022/06/05 03:48:38;;;;;;;;;;;12.00;99.90;;;;;;5087089;28;19952;-62
2022/06/05 03:51:05;;;;;;;;;;;12.00;99.90;;;;;;5086983;28;19904;-62
2022/06/05 03:53:31;;;;;;;;;;;12.00;99.90;;;;;;5070931;28;19927;-63
2022/06/05 03:55:56;;;;;;;;;;;11.90;99.90;;;;;;5070057;28;19912;-61
2022/06/05 03:58:22;;;;;;;;;;;11.80;99.90;;;;;;5090273;28;19916;-62
2022/06/05 04:00:47;;;;;;;;;;;11.90;99.90;;;;;;5084716;28;19907;-62
2022/06/05 04:03:13;;;;;;;;;;;11.90;99.90;;;;;;5083988;28;19924;-63
2022/06/05 04:05:39;;;;;;;;;;;11.90;99.90;;;;;;5082502;28;19921;-63
2022/06/05 04:08:04;;;;;;;;;;;12.00;99.90;;;;;;5091567;28;19979;-64
2022/06/05 04:10:30;;;;;;;;;;;11.90;99.90;;;;;;5069062;28;19913;-62
2022/06/05 04:12:56;;;;;;;;;;;11.90;99.90;;;;;;5089580;28;19922;-62
2022/06/05 04:15:22;;;;;;;;;;;11.90;99.90;;;;;;5087419;28;19919;-62
2022/06/05 04:17:47;;;;;;;;;;;11.90;99.90;;;;;;5087858;28;19913;-62
2022/06/05 04:20:13;;;;;;;;;;;11.90;99.90;;;;;;5080088;28;20334;-62
2022/06/05 04:22:40;;;;;;;;;;;11.90;99.90;;;;;;5088747;28;19920;-61
2022/06/05 04:25:07;;;;;;;;;;;11.90;99.90;;;;;;5083061;28;19916;-62
2022/06/05 04:27:33;;;;;;;;;;;12.00;99.90;;;;;;5077723;28;19912;-62
2022/06/05 04:29:59;;;;;;;;;;;12.10;99.90;;;;;;5074861;28;19920;-62
2022/06/05 04:32:24;;;;;;;;;;;12.00;99.90;;;;;;5071595;28;19963;-62
2022/06/05 04:34:51;;;;;;;;;;;12.00;99.90;;;;;;5088354;28;19930;-63
2022/06/05 04:37:16;;;;;;;;;;;12.00;99.90;;;;;;5068022;28;19989;-63
2022/06/05 04:39:42;;;;;;;;;;;12.00;99.90;;;;;;5053922;28;19947;-62
2022/06/05 04:42:07;;;;;;;;;;;12.00;99.90;;;;;;5051439;28;19912;-63
2022/06/05 04:44:33;;;;;;;;;;;12.10;99.90;;;;;;5067367;28;20282;-62
2022/06/05 04:46:58;;;;;;;;;;;12.10;99.90;;;;;;5068344;28;19921;-63
2022/06/05 04:49:24;;;;;;;;;;;12.00;99.90;;;;;;5050094;28;20015;-63
2022/06/05 04:51:50;;;;;;;;;;;12.00;99.90;;;;;;5070578;28;19923;-63
2022/06/05 04:54:16;;;;;;;;;;;12.00;99.90;;;;;;5083483;28;19913;-63
2022/06/05 04:56:42;;;;;;;;;;;12.10;99.90;;;;;;5084813;28;19916;-62
2022/06/05 04:59:08;;;;;;;;;;;12.10;99.90;;;;;;5050804;28;19939;-62
2022/06/05 05:01:35;;;;;;;;;;;12.10;99.90;;;;;;5049767;28;19966;-62
2022/06/05 05:04:03;;;;;;;;;;;12.10;99.90;;;;;;5069376;28;19952;-63
2022/06/05 05:06:30;;;;;;;;;;;12.10;99.90;;;;;;5070613;28;19985;-63
2022/06/05 05:08:56;;;;;;;;;;;12.10;99.90;;;;;;5071272;28;19959;-62
2022/06/05 05:11:22;;;;;;;;;;;12.20;99.90;;;;;;5081456;28;20818;-62
2022/06/05 05:13:50;;;;;;;;;;;12.20;99.90;;;;;;5082995;28;19942;-64
2022/06/05 05:16:15;;;;;;;;;;;12.30;99.90;;;;;;5083624;28;19920;-64
2022/06/05 05:18:41;;;;;;;;;;;12.30;99.90;;;;;;5085685;28;19924;-63
2022/06/05 05:21:09;;;;;;;;;;;12.40;99.90;;;;;;5086567;28;19935;-62
2022/06/05 05:23:35;;;;;;;;;;;12.30;99.90;;;;;;5079333;28;19912;-63
2022/06/05 05:26:07;;;;;;;;;;;12.30;99.90;;;;;;5054971;28;19948;-62
2022/06/05 05:28:32;;;;;;;;;;;12.30;99.90;;;;;;5068403;28;19916;-63
2022/06/05 05:30:58;;;;;;;;;;;12.50;99.90;;;;;;5066704;28;19966;-64
2022/06/05 05:33:24;;;;;;;;;;;12.50;99.90;;;;;;5070272;28;19912;-63
2022/06/05 05:35:50;;;;;;;;;;;12.50;99.90;;;;;;5047378;28;19920;-62
2022/06/05 05:38:15;;;;;;;;;;;12.50;99.90;;;;;;5051732;28;20435;-63
2022/06/05 05:43:25;;;;;;;;;;;12.50;99.90;;;;;;5066949;28;19920;-63
2022/06/05 05:45:51;;;;;;;;;;;12.60;99.90;;;;;;5070151;28;20259;-63
2022/06/05 05:48:16;;;;;;;;;;;12.70;99.90;;;;;;5062662;28;19927;-63
2022/06/05 05:50:45;;;;;;;;;;;12.60;99.90;;;;;;5064634;28;19923;-63
2022/06/05 05:53:11;;;;;;;;;;;12.70;99.90;;;;;;5067872;28;19985;-64
2022/06/05 05:55:36;;;;;;;;;;;12.70;99.90;;;;;;5072602;28;19913;-63
2022/06/05 05:58:02;;;;;;;;;;;12.70;99.90;;;;;;5066741;28;19927;-62
2022/06/05 06:00:28;;;;;;;;;;;12.80;99.90;;;;;;5064206;28;20586;-64
2022/06/05 06:02:54;;;;;;;;;;;12.80;99.90;;;;;;5067721;28;19916;-63
2022/06/05 06:05:23;;;;;;;;;;;12.80;99.90;;;;;;5068146;28;19920;-62
2022/06/05 06:07:48;;;;;;;;;;;12.90;99.90;;;;;;5067601;28;19913;-63
2022/06/05 06:10:14;;;;;;;;;;;12.80;99.90;;;;;;5066248;28;19912;-61
2022/06/05 06:12:39;;;;;;;;;;;12.80;99.90;;;;;;5051538;28;19959;-62
2022/06/05 06:15:05;;;;;;;;;;;12.80;99.90;;;;;;5066293;28;20629;-62
2022/06/05 06:17:31;;;;;;;;;;;12.90;99.90;;;;;;5077088;28;19923;-63
2022/06/05 06:19:57;;;;;;;;;;;12.90;99.90;;;;;;5070276;28;20624;-62
2022/06/05 06:22:22;;;;;;;;;;;12.90;99.90;;;;;;5066193;28;19916;-63
2022/06/05 06:24:48;;;;;;;;;;;12.80;99.90;;;;;;5046279;28;19921;-62
2022/06/05 06:27:13;;;;;;;;;;;12.60;99.90;;;;;;5077349;28;19931;-62
2022/06/05 06:29:39;;;;;;;;;;;12.70;99.90;;;;;;5076189;28;20387;-63
2022/06/05 06:32:05;;;;;;;;;;;12.80;99.90;;;;;;5070765;28;20616;-63
2022/06/05 06:34:30;;;;;;;;;;;12.80;99.90;;;;;;5048261;28;20019;-64
2022/06/05 06:36:57;;;;;;;;;;;12.90;99.90;;;;;;5054280;28;20194;-63
2022/06/05 06:39:22;;;;;;;;;;;13.10;99.90;;;;;;5051702;28;19975;-62
2022/06/05 06:41:48;;;;;;;;;;;13.20;99.90;;;;;;5049184;28;19960;-63
2022/06/05 06:44:14;;;;;;;;;;;13.20;99.90;;;;;;5063090;28;20007;-62
2022/06/05 06:46:40;;;;;;;;;;;13.20;99.90;;;;;;5069389;28;19947;-63
2022/06/05 06:49:06;;;;;;;;;;;13.10;99.90;;;;;;5066158;28;20382;-64
2022/06/05 06:51:31;;;;;;;;;;;13.00;99.90;;;;;;5046155;28;19924;-64
2022/06/05 06:53:57;;;;;;;;;;;13.00;99.90;;;;;;5065732;28;20370;-64
2022/06/05 06:56:24;;;;;;;;;;;13.10;99.90;;;;;;5068114;28;20319;-64
2022/06/05 06:58:50;;;;;;;;;;;13.00;99.90;;;;;;5051201;28;19921;-65
2022/06/05 07:01:15;;;;;;;;;;;12.90;99.90;;;;;;5065442;28;20342;-63
2022/06/05 07:03:41;;;;;;;;;;;13.00;99.90;;;;;;5067321;28;19916;-64
2022/06/05 07:06:08;;;;;;;;;;;13.10;99.90;;;;;;5067266;28;20012;-63
2022/06/05 07:08:34;;;;;;;;;;;13.20;99.90;;;;;;5067226;28;19951;-66
2022/06/05 07:11:00;;;;;;;;;;;13.20;99.90;;;;;;5048746;28;19966;-64
2022/06/05 07:13:26;;;;;;;;;;;13.10;99.90;;;;;;5061679;28;19920;-64
2022/06/05 07:15:52;;;;;;;;;;;13.30;99.90;;;;;;5063750;28;20274;-64
2022/06/05 07:18:18;;;;;;;;;;;13.30;99.90;;;;;;5066885;28;19951;-63
2022/06/05 07:20:44;;;;;;;;;;;13.20;99.90;;;;;;5064798;28;19920;-63
2022/06/05 07:23:10;;;;;;;;;;;13.20;99.90;;;;;;5066809;28;19920;-63
2022/06/05 07:25:36;;;;;;;;;;;13.20;99.90;;;;;;5065974;28;20487;-63
2022/06/05 07:28:03;;;;;;;;;;;13.20;99.90;;;;;;5045928;28;20026;-63
2022/06/05 07:30:29;;;;;;;;;;;13.20;99.90;;;;;;5060874;28;19966;-63
2022/06/05 07:32:54;;;;;;;;;;;13.30;99.90;;;;;;5061703;28;20340;-62
2022/06/05 07:35:20;;;;;;;;;;;13.30;99.90;;;;;;5060116;28;19927;-64
2022/06/05 07:37:46;;;;;;;;;;;13.50;99.90;;;;;;5057128;28;19917;-63
2022/06/05 07:40:12;;;;;;;;;;;13.50;99.90;;;;;;5061621;28;19964;-62
2022/06/05 07:42:38;;;;;;;;;;;13.60;99.90;;;;;;5059560;28;19917;-63
2022/06/05 07:45:04;;;;;;;;;;;13.50;99.90;;;;;;5062965;28;19913;-63
2022/06/05 07:47:30;;;;;;;;;;;13.50;99.90;;;;;;5056734;28;19924;-62
2022/06/05 07:49:55;;;;;;;;;;;13.50;99.90;;;;;;5062978;28;20290;-63
2022/06/05 07:55:05;;;;;;;;;;;13.50;99.90;;;;;;5070947;28;20092;-63
2022/06/05 07:57:31;;;;;;;;;;;13.50;99.90;;;;;;5070064;28;19948;-63
2022/06/05 07:59:56;;;;;;;;;;;13.50;99.90;;;;;;5047996;28;20303;-64
2022/06/05 08:02:23;;;;;;;;;;;13.50;99.90;;;;;;5073031;28;20308;-63
2022/06/05 08:04:52;;;;;;;;;;;13.50;99.90;;;;;;5082419;28;19903;-63
2022/06/05 08:07:20;;;;;;;;;;;13.50;99.90;;;;;;5090208;28;19952;-63
2022/06/05 08:09:45;;;;;;;;;;;13.50;99.90;;;;;;5067222;28;19916;-63
2022/06/05 08:12:12;;;;;;;;;;;13.50;99.90;;;;;;5073363;28;19917;-64
2022/06/05 08:14:39;;;;;;;;;;;13.50;99.90;;;;;;5059740;28;19984;-64
2022/06/05 08:17:06;;;;;;;;;;;13.50;99.90;;;;;;5082621;28;19903;-63
2022/06/05 08:19:32;;;;;;;;;;;13.50;99.90;;;;;;5082059;28;19916;-63
2022/06/05 08:22:00;;;;;;;;;;;13.60;99.90;;;;;;5070029;28;19935;-63
2022/06/05 08:24:26;;;;;;;;;;;13.60;99.90;;;;;;5092760;28;19900;-63
2022/06/05 08:26:51;;;;;;;;;;;13.70;99.90;;;;;;5067329;28;19920;-64
2022/06/05 08:29:18;;;;;;;;;;;13.80;99.90;;;;;;5080652;28;19959;-63
2022/06/05 08:31:47;;;;;;;;;;;13.90;99.90;;;;;;5061240;28;19976;-62
2022/06/05 08:34:14;;;;;;;;;;;14.20;99.90;;;;;;5046004;28;20031;-65
2022/06/05 08:36:41;;;;;;;;;;;14.20;99.90;;;;;;5056204;28;19924;-64
2022/06/05 08:42:06;;;;;;;;;;;14.30;99.90;;;;;;5065654;28;19934;-65
2022/06/05 08:44:38;;;;;;;;;;;14.50;99.90;;;;;;5073330;28;20311;-65
2022/06/05 08:47:10;;;;;;;;;;;14.60;99.90;;;;;;5071988;28;19942;-65
2022/06/05 08:49:47;;;;;;;;;;;14.70;99.90;;;;;;5069067;28;20344;-65
2022/06/05 08:52:19;;;;;;;;;;;15.00;99.90;;;;;;5069030;28;19912;-64
2022/06/05 08:54:59;;;;;;;;;;;15.10;99.90;;;;;;5063964;28;19951;-63
2022/06/05 08:57:45;;;;;;;;;;;15.20;99.90;;;;;;5066684;28;19920;-65
2022/06/05 09:00:22;;;;;;;;;;;15.30;99.90;;;;;;5060156;28;20352;-64
2022/06/05 09:02:52;;;;;;;;;;;15.20;99.90;;;;;;5066773;28;19970;-65
2022/06/05 09:05:18;;;;;;;;;;;15.30;99.90;;;;;;5070122;28;19920;-65
2022/06/05 09:07:47;;;;;;;;;;;15.30;99.90;;;;;;5068351;28;20003;-66
2022/06/05 09:10:19;;;;;;;;;;;15.50;99.90;;;;;;5070501;28;20031;-65
2022/06/05 09:12:54;;;;;;;;;;;15.40;99.90;;;;;;5047142;28;19927;-64
2022/06/05 09:15:29;;;;;;;;;;;15.60;99.90;;;;;;5065163;28;20325;-65
2022/06/05 09:17:57;;;;;;;;;;;15.50;99.90;;;;;;5050069;28;19942;-65
2022/06/05 09:20:25;;;;;;;;;;;15.30;99.90;;;;;;5065749;28;19913;-65
2022/06/05 09:22:57;;;;;;;;;;;15.40;99.90;;;;;;5065065;28;19920;-65
2022/06/05 09:25:43;;;;;;;;;;;15.60;99.90;;;;;;5069270;28;19963;-65
2022/06/05 09:28:14;;;;;;;;;;;15.60;99.90;;;;;;5066988;28;20354;-64
2022/06/05 09:30:47;;;;;;;;;;;15.70;99.90;;;;;;5065506;28;19921;-65
2022/06/05 09:33:20;;;;;;;;;;;15.80;99.90;;;;;;5058197;28;20007;-64
2022/06/05 09:35:57;;;;;;;;;;;15.80;99.90;;;;;;5040438;28;20005;-64
2022/06/05 09:38:28;;;;;;;;;;;15.70;99.90;;;;;;5043520;28;20122;-64
2022/06/05 09:41:14;;;;;;;;;;;15.80;99.90;;;;;;5061201;28;19912;-65
2022/06/05 09:43:48;;;;;;;;;;;15.60;99.90;;;;;;5062027;28;19966;-64
2022/06/05 09:46:26;;;;;;;;;;;15.60;99.90;;;;;;5061138;28;19943;-66
2022/06/05 09:49:02;;;;;;;;;;;15.50;99.90;;;;;;5061012;28;20011;-65
2022/06/05 09:51:27;;;;;;;;;;;15.60;99.90;;;;;;5063489;28;19916;-65
2022/06/05 09:53:56;;;;;;;;;;;15.70;99.90;;;;;;5060683;28;19913;-64
2022/06/05 09:56:34;;;;;;;;;;;15.70;99.90;;;;;;5044923;28;19913;-64
2022/06/05 09:59:14;;;;;;;;;;;15.70;99.90;;;;;;5064941;28;19983;-64
2022/06/05 10:01:48;;;;;;;;;;;15.70;99.90;;;;;;5064024;28;20672;-64
2022/06/05 10:04:14;;;;;;;;;;;15.80;99.90;;;;;;5060741;28;19913;-64
2022/06/05 10:06:46;;;;;;;;;;;15.70;99.90;;;;;;5055607;28;20286;-65
2022/06/05 10:09:13;;;;;;;;;;;15.50;99.90;;;;;;5058869;28;20006;-64
2022/06/05 10:11:39;;;;;;;;;;;15.60;99.90;;;;;;5041262;28;20016;-65
2022/06/05 10:14:17;;;;;;;;;;;15.70;99.90;;;;;;5061323;28;20061;-66
2022/06/05 10:16:49;;;;;;;;;;;15.80;99.90;;;;;;5046860;28;19925;-65
2022/06/05 10:19:33;;;;;;;;;;;15.80;99.90;;;;;;5060354;28;19912;-67
2022/06/05 10:22:07;;;;;;;;;;;15.60;99.90;;;;;;5061911;28;20393;-65
2022/06/05 10:24:48;;;;;;;;;;;15.50;99.90;;;;;;5060884;28;20011;-67
2022/06/05 10:27:15;;;;;;;;;;;15.50;99.90;;;;;;5041577;28;19924;-67
2022/06/05 10:29:49;;;;;;;;;;;15.60;99.90;;;;;;5061761;28;19920;-66
2022/06/05 10:32:40;;;;;;;;;;;15.70;99.90;;;;;;5056288;28;19912;-64
2022/06/05 10:35:26;;;;;;;;;;;15.60;99.90;;;;;;5054577;28;19958;-66
2022/06/05 10:38:06;;;;;;;;;;;15.50;99.90;;;;;;5044041;28;19920;-65
2022/06/05 10:40:40;;;;;;;;;;;15.30;99.90;;;;;;5063281;28;19913;-65
2022/06/05 10:43:24;;;;;;;;;;;15.30;99.90;;;;;;5064620;28;20282;-67
2022/06/05 10:46:17;;;;;;;;;;;15.40;99.90;;;;;;5062990;28;19931;-64
2022/06/05 10:49:17;;;;;;;;;;;15.50;99.90;;;;;;5049579;28;19929;-65
2022/06/05 10:51:49;;;;;;;;;;;15.50;99.90;;;;;;5010533;28;19938;-64
2022/06/05 10:54:14;;;;;;;;;;;15.60;99.90;;;;;;5048679;28;19920;-67
2022/06/05 10:56:40;;;;;;;;;;;15.80;99.90;;;;;;5067354;28;19912;-66
2022/06/05 10:59:16;;;;;;;;;;;15.90;99.90;;;;;;5064355;28;19919;-67
2022/06/05 11:01:41;;;;;;;;;;;15.90;99.90;;;;;;5065878;28;20047;-65
2022/06/05 11:04:23;;;;;;;;;;;15.90;99.90;;;;;;5068815;28;19944;-67
2022/06/05 11:06:52;;;;;;;;;;;15.80;99.90;;;;;;5062413;28;19932;-67
2022/06/05 11:09:26;;;;;;;;;;;15.80;99.90;;;;;;5072638;28;19919;-65
2022/06/05 11:14:40;;;;;;;;;;;15.70;99.90;;;;;;5060182;28;19932;-67
2022/06/05 11:17:06;;;;;;;;;;;15.70;99.90;;;;;;5060581;28;19924;-66
2022/06/05 11:19:41;;;;;;;;;;;15.90;99.90;;;;;;5063735;28;19919;-65
2022/06/05 11:22:12;;;;;;;;;;;16.10;99.90;;;;;;5037226;28;19919;-67
2022/06/05 11:24:47;;;;;;;;;;;16.20;99.90;;;;;;5048667;28;19920;-66
2022/06/05 11:27:27;;;;;;;;;;;16.10;99.90;;;;;;5039486;28;20059;-67
2022/06/05 11:30:09;;;;;;;;;;;16.10;99.90;;;;;;5030827;28;22120;-65
2022/06/05 11:32:35;;;;;;;;;;;16.10;99.90;;;;;;5059567;28;19920;-65
2022/06/05 11:35:15;;;;;;;;;;;16.10;99.90;;;;;;5063200;28;20309;-66
2022/06/05 11:38:05;;;;;;;;;;;16.10;99.90;;;;;;5051833;28;20014;-65
2022/06/05 11:40:36;;;;;;;;;;;15.90;99.90;;;;;;5065353;28;19928;-65
2022/06/05 11:43:02;;;;;;;;;;;16.00;99.90;;;;;;5053449;28;19919;-65
2022/06/05 11:45:44;;;;;;;;;;;16.20;99.90;;;;;;5048197;28;19968;-65
2022/06/05 11:48:13;;;;;;;;;;;16.20;99.90;;;;;;5026365;28;19928;-64
2022/06/05 11:50:57;;;;;;;;;;;16.30;99.90;;;;;;5022429;28;19947;-66
2022/06/05 11:53:30;;;;;;;;;;;16.50;99.90;;;;;;5030761;28;20269;-64
2022/06/05 11:56:15;;;;;;;;;;;16.50;99.90;;;;;;5033330;28;19913;-64
2022/06/05 11:58:53;;;;;;;;;;;16.40;99.90;;;;;;5038502;28;20289;-63
2022/06/05 12:01:26;;;;;;;;;;;16.60;99.90;;;;;;5036237;28;19921;-64
2022/06/05 12:04:06;;;;;;;;;;;16.60;99.90;;;;;;5031692;28;19920;-64
2022/06/05 12:06:32;;;;;;;;;;;16.50;99.90;;;;;;5014308;28;19960;-64
2022/06/05 12:09:02;;;;;;;;;;;16.60;99.90;;;;;;5031359;28;20035;-64
2022/06/05 12:11:33;;;;;;;;;;;16.50;99.90;;;;;;5035972;28;20216;-62
2022/06/05 12:14:02;;;;;;;;;;;16.40;99.90;;;;;;5034221;28;20374;-63
2022/06/05 12:16:47;;;;;;;;;;;16.30;99.90;;;;;;5033220;28;19919;-63
2022/06/05 12:19:33;;;;;;;;;;;16.20;99.90;;;;;;5028492;28;19916;-65
2022/06/05 12:22:03;;;;;;;;;;;16.00;99.90;;;;;;5039215;28;19914;-63
2022/06/05 12:24:38;;;;;;;;;;;15.90;99.90;;;;;;5036639;28;19913;-64
2022/06/05 12:27:15;;;;;;;;;;;15.80;99.90;;;;;;5022411;28;19964;-64
2022/06/05 12:30:00;;;;;;;;;;;15.80;99.90;;;;;;5026872;28;20011;-65
2022/06/05 12:32:30;;;;;;;;;;;15.90;99.90;;;;;;5036600;28;20076;-63
2022/06/05 12:35:02;;;;;;;;;;;16.00;99.90;;;;;;5044577;28;19913;-63
2022/06/05 12:37:31;;;;;;;;;;;16.20;99.90;;;;;;5046264;28;19960;-64
2022/06/05 12:39:57;;;;;;;;;;;16.30;99.90;;;;;;5036033;28;20165;-63
2022/06/05 12:42:31;;;;;;;;;;;16.30;99.90;;;;;;5043053;28;19913;-63
2022/06/05 12:44:57;;;;;;;;;;;16.40;99.90;;;;;;5038696;28;20243;-65
2022/06/05 12:47:23;;;;;;;;;;;16.50;99.90;;;;;;5050790;28;19920;-65
2022/06/05 12:49:54;;;;;;;;;;;16.50;99.90;;;;;;5069979;28;19942;-64
2022/06/05 12:52:24;;;;;;;;;;;16.30;99.90;;;;;;5061617;28;20264;-64
2022/06/05 12:54:55;;;;;;;;;;;16.30;99.90;;;;;;5069188;28;19912;-64
2022/06/05 12:57:25;;;;;;;;;;;16.30;99.90;;;;;;5075689;28;19912;-64
2022/06/05 12:59:53;;;;;;;;;;;16.30;99.90;;;;;;5068495;28;19926;-64
2022/06/05 13:02:36;;;;;;;;;;;16.40;99.90;;;;;;5072845;28;20362;-64
2022/06/05 13:05:05;;;;;;;;;;;16.30;99.90;;;;;;5059510;28;19961;-64
2022/06/05 13:07:40;;;;;;;;;;;16.50;99.90;;;;;;5058738;28;19943;-64
2022/06/05 13:10:19;;;;;;;;;;;16.50;99.90;;;;;;5073942;28;19917;-65
2022/06/05 13:12:54;;;;;;;;;;;16.30;99.90;;;;;;5073625;28;20476;-64
2022/06/05 13:15:23;;;;;;;;;;;16.40;99.90;;;;;;5085549;28;19932;-63
2022/06/05 13:17:49;;;;;;;;;;;16.50;99.90;;;;;;5064705;28;20373;-63
2022/06/05 13:20:20;;;;;;;;;;;16.40;99.90;;;;;;5086692;28;19912;-62
2022/06/05 13:23:03;;;;;;;;;;;16.40;99.90;;;;;;5056393;28;20294;-64
2022/06/05 13:25:41;;;;;;;;;;;16.50;99.90;;;;;;5066891;28;19917;-65
2022/06/05 13:28:28;;;;;;;;;;;16.60;99.90;;;;;;5082837;28;19916;-64
2022/06/05 13:30:59;;;;;;;;;;;16.80;99.90;;;;;;5060691;28;19913;-65
2022/06/05 13:33:45;;;;;;;;;;;16.90;99.90;;;;;;5089906;28;20396;-65
2022/06/05 13:36:25;;;;;;;;;;;16.80;99.90;;;;;;5072477;28;19952;-64
2022/06/05 13:38:54;;;;;;;;;;;16.80;99.90;;;;;;5060756;28;19962;-66
2022/06/05 13:41:23;;;;;;;;;;;16.70;99.90;;;;;;5066311;28;19920;-66
2022/06/05 13:43:53;;;;;;;;;;;16.80;99.90;;;;;;5074701;28;19913;-65
2022/06/05 13:46:28;;;;;;;;;;;16.90;99.90;;;;;;5076696;28;19978;-65
2022/06/05 13:48:53;;;;;;;;;;;16.90;99.90;;;;;;5069650;28;20363;-65
2022/06/05 13:51:35;;;;;;;;;;;17.20;99.90;;;;;;5068417;28;19999;-66
2022/06/05 13:54:16;;;;;;;;;;;17.00;99.90;;;;;;5084493;28;19919;-65
2022/06/05 13:56:57;;;;;;;;;;;16.90;99.90;;;;;;5081010;28;20220;-66
2022/06/05 13:59:29;;;;;;;;;;;17.10;99.90;;;;;;5064386;28;20350;-65
2022/06/05 14:02:09;;;;;;;;;;;17.10;99.90;;;;;;5066363;28;19939;-66
2022/06/05 14:04:52;;;;;;;;;;;17.20;99.90;;;;;;5070403;28;19924;-65
2022/06/05 14:07:19;;;;;;;;;;;17.00;99.90;;;;;;5051778;28;19928;-68
2022/06/05 14:09:54;;;;;;;;;;;17.00;99.90;;;;;;5077225;28;19963;-66
2022/06/05 14:12:19;;;;;;;;;;;17.10;99.90;;;;;;5056242;28;19947;-64
2022/06/05 14:14:45;;;;;;;;;;;17.10;99.90;;;;;;5077099;28;19919;-66
2022/06/05 14:17:31;;;;;;;;;;;17.10;99.90;;;;;;5077511;28;19919;-65
2022/06/05 14:20:00;;;;;;;;;;;17.20;99.90;;;;;;5073006;28;19916;-65
2022/06/05 14:22:27;;;;;;;;;;;17.10;99.90;;;;;;5070054;28;20271;-64
2022/06/05 14:24:55;;;;;;;;;;;17.00;99.90;;;;;;5060089;28;19936;-66
2022/06/05 14:27:29;;;;;;;;;;;17.00;99.90;;;;;;5055043;28;19924;-64
2022/06/05 14:29:55;;;;;;;;;;;17.00;99.90;;;;;;5060279;28;19963;-65
2022/06/05 14:32:28;;;;;;;;;;;17.00;99.90;;;;;;5062068;28;19919;-65
2022/06/05 14:35:20;;;;;;;;;;;16.90;99.90;;;;;;5056302;28;19935;-63
2022/06/05 14:38:09;;;;;;;;;;;16.70;99.90;;;;;;5067795;28;19917;-65
2022/06/05 14:40:49;;;;;;;;;;;16.60;99.90;;;;;;5088575;28;19904;-65
2022/06/05 14:43:21;;;;;;;;;;;16.60;99.90;;;;;;5088329;28;19970;-64
2022/06/05 14:45:50;;;;;;;;;;;16.60;99.90;;;;;;5087685;28;19920;-64
2022/06/05 14:48:34;;;;;;;;;;;16.60;99.90;;;;;;5082986;28;19980;-64